createdAt,value
2023-05-14T00:01:11.367Z,11.74
2023-05-14T00:03:41.270Z,11.71
2023-05-14T00:06:10.736Z,11.67
2023-05-14T00:08:39.354Z,11.62
2023-05-14T00:11:09.438Z,11.59
2023-05-14T00:13:38.072Z,11.57
2023-05-14T00:16:07.507Z,11.53
2023-05-14T00:18:35.879Z,11.51
2023-05-14T00:21:05.148Z,11.45
2023-05-14T00:23:33.791Z,11.37
2023-05-14T00:26:02.190Z,11.31
2023-05-14T00:28:32.100Z,11.22
2023-05-14T00:31:00.478Z,11.17
2023-05-14T00:33:29.244Z,11.09
2023-05-14T00:35:57.433Z,11.08
2023-05-14T00:38:28.713Z,11.02
2023-05-14T00:40:57.316Z,10.97
2023-05-14T00:43:26.002Z,10.94
2023-05-14T00:45:56.713Z,10.94
2023-05-14T00:48:26.547Z,10.90
2023-05-14T00:50:54.816Z,10.90
2023-05-14T00:53:24.259Z,10.89
2023-05-14T00:55:53.153Z,10.82
2023-05-14T00:58:22.101Z,10.86
2023-05-14T01:00:50.647Z,10.80
2023-05-14T01:03:22.704Z,10.74
2023-05-14T01:06:05.815Z,10.68
2023-05-14T01:08:41.632Z,10.60
2023-05-14T01:11:21.484Z,10.52
2023-05-14T01:14:01.838Z,10.47
2023-05-14T01:16:35.231Z,10.46
2023-05-14T01:19:09.181Z,10.42
2023-05-14T01:21:40.986Z,10.35
2023-05-14T01:24:09.980Z,10.32
2023-05-14T01:26:38.553Z,10.28
2023-05-14T01:29:15.018Z,10.26
2023-05-14T01:31:45.170Z,10.21
2023-05-14T01:34:15.116Z,10.16
2023-05-14T01:36:45.396Z,10.12
2023-05-14T01:39:16.646Z,10.12
2023-05-14T01:41:46.420Z,10.07
2023-05-14T01:44:17.479Z,10.14
2023-05-14T01:46:46.089Z,10.14
2023-05-14T01:49:18.518Z,10.10
2023-05-14T01:51:50.329Z,10.11
2023-05-14T01:54:19.395Z,10.06
2023-05-14T01:56:47.580Z,10.09
2023-05-14T01:59:16.144Z,10.04
2023-05-14T02:01:44.469Z,10.01
2023-05-14T02:04:14.756Z,9.99
2023-05-14T02:06:43.190Z,9.97
2023-05-14T02:09:12.673Z,9.94
2023-05-14T02:11:40.825Z,9.92
2023-05-14T02:14:09.283Z,9.91
2023-05-14T02:16:40.733Z,9.86
2023-05-14T02:19:09.554Z,9.82
2023-05-14T02:21:37.839Z,9.77
2023-05-14T02:24:06.290Z,9.72
2023-05-14T02:26:36.007Z,9.64
2023-05-14T02:29:06.438Z,9.58
2023-05-14T02:31:34.849Z,9.50
2023-05-14T02:34:07.068Z,9.43
2023-05-14T02:36:35.366Z,9.41
2023-05-14T02:39:06.056Z,9.36
2023-05-14T02:41:35.683Z,9.37
2023-05-14T02:44:06.644Z,9.31
2023-05-14T02:46:35.614Z,9.30
2023-05-14T02:49:22.541Z,9.28
2023-05-14T02:51:50.709Z,9.28
2023-05-14T02:54:18.984Z,9.24
2023-05-14T02:56:48.708Z,9.24
2023-05-14T02:59:17.281Z,9.24
2023-05-14T03:01:46.038Z,9.22
2023-05-14T03:04:14.659Z,9.25
2023-05-14T03:06:42.879Z,9.24
2023-05-14T03:09:11.229Z,9.22
2023-05-14T03:11:39.514Z,9.23
2023-05-14T03:14:09.151Z,9.22
2023-05-14T03:16:37.591Z,9.21
2023-05-14T03:19:05.766Z,9.22
2023-05-14T03:21:34.611Z,9.22
2023-05-14T03:24:03.277Z,9.19
2023-05-14T03:26:31.479Z,9.21
2023-05-14T03:28:59.595Z,9.21
2023-05-14T03:31:29.100Z,9.22
2023-05-14T03:34:00.116Z,9.17
2023-05-14T03:36:30.360Z,9.15
2023-05-14T03:38:58.541Z,9.13
2023-05-14T03:41:29.083Z,9.11
2023-05-14T03:45:13.620Z,9.08
2023-05-14T03:47:41.966Z,9.06
2023-05-14T03:50:10.544Z,8.97
2023-05-14T03:52:38.639Z,9.07
2023-05-14T03:55:08.028Z,9.07
2023-05-14T03:57:41.489Z,9.08
2023-05-14T04:00:11.115Z,9.10
2023-05-14T04:02:46.593Z,9.15
2023-05-14T04:05:14.834Z,9.16
2023-05-14T04:07:47.059Z,9.15
2023-05-14T04:10:15.859Z,9.16
2023-05-14T04:12:44.006Z,9.15
2023-05-14T04:15:12.817Z,9.15
2023-05-14T04:17:41.327Z,9.14
2023-05-14T04:20:13.114Z,9.15
2023-05-14T04:22:41.267Z,9.11
2023-05-14T04:25:09.988Z,9.08
2023-05-14T04:27:41.406Z,9.08
2023-05-14T04:30:10.968Z,9.09
2023-05-14T04:32:39.323Z,9.09
2023-05-14T04:35:09.131Z,9.16
2023-05-14T04:37:39.047Z,9.19
2023-05-14T04:40:12.794Z,9.27
2023-05-14T04:42:40.912Z,9.36
2023-05-14T04:45:13.691Z,9.41
2023-05-14T04:47:42.365Z,9.49
2023-05-14T04:50:13.054Z,9.63
2023-05-14T04:52:42.874Z,9.73
2023-05-14T04:55:11.635Z,9.86
2023-05-14T04:57:39.694Z,9.94
2023-05-14T05:00:10.055Z,10.04
2023-05-14T05:02:38.276Z,10.12
2023-05-14T05:05:07.050Z,10.34
2023-05-14T05:07:40.124Z,10.42
2023-05-14T05:10:10.625Z,10.54
2023-05-14T05:12:39.018Z,10.81
2023-05-14T05:15:09.547Z,11.17
2023-05-14T05:17:38.087Z,11.40
2023-05-14T05:20:10.261Z,11.43
2023-05-14T05:22:38.310Z,11.91
2023-05-14T05:25:08.162Z,12.61
2023-05-14T05:27:37.702Z,12.42
2023-05-14T05:30:07.361Z,12.16
2023-05-14T05:32:36.354Z,12.15
2023-05-14T05:35:04.996Z,12.17
2023-05-14T05:37:36.016Z,11.98
2023-05-14T05:40:07.882Z,11.88
2023-05-14T05:42:37.326Z,11.77
2023-05-14T05:45:06.619Z,11.54
2023-05-14T05:47:34.987Z,11.57
2023-05-14T05:50:06.306Z,11.60
2023-05-14T05:52:39.896Z,11.74
2023-05-14T05:55:08.638Z,11.86
2023-05-14T05:57:38.501Z,12.00
2023-05-14T06:00:13.403Z,12.05
2023-05-14T06:02:42.431Z,11.88
2023-05-14T06:05:11.842Z,11.92
2023-05-14T06:07:40.414Z,11.96
2023-05-14T06:10:13.808Z,12.02
2023-05-14T06:12:43.403Z,12.02
2023-05-14T06:15:12.188Z,12.07
2023-05-14T06:17:40.714Z,12.05
2023-05-14T06:20:12.163Z,11.84
2023-05-14T06:22:40.308Z,11.95
2023-05-14T06:25:09.481Z,12.03
2023-05-14T06:27:37.801Z,12.07
2023-05-14T06:30:08.559Z,12.24
2023-05-14T06:32:36.743Z,12.43
2023-05-14T06:35:08.664Z,12.52
2023-05-14T06:37:36.895Z,12.94
2023-05-14T06:40:06.092Z,13.47
2023-05-14T06:42:34.469Z,14.03
2023-05-14T06:45:03.352Z,14.36
2023-05-14T06:47:34.166Z,14.65
2023-05-14T06:50:02.287Z,15.02
2023-05-14T06:52:30.836Z,15.33
2023-05-14T06:54:58.941Z,15.69
2023-05-14T06:57:27.098Z,15.82
2023-05-14T06:59:55.518Z,16.64
2023-05-14T07:02:23.677Z,18.20
2023-05-14T07:04:53.280Z,19.25
2023-05-14T07:07:22.036Z,19.98
2023-05-14T07:09:54.954Z,20.15
2023-05-14T07:12:26.004Z,20.90
2023-05-14T07:14:54.256Z,20.68
2023-05-14T07:17:22.737Z,21.34
2023-05-14T07:19:51.361Z,20.69
2023-05-14T07:22:20.915Z,22.06
2023-05-14T07:24:49.553Z,22.19
2023-05-14T07:27:20.366Z,21.69
2023-05-14T07:29:48.720Z,22.33
2023-05-14T07:32:16.912Z,22.93
2023-05-14T07:34:45.224Z,23.12
2023-05-14T07:37:13.358Z,23.75
2023-05-14T07:39:45.401Z,23.21
2023-05-14T07:42:19.518Z,23.77
2023-05-14T07:44:53.209Z,23.65
2023-05-14T07:47:21.385Z,23.09
2023-05-14T07:49:49.665Z,23.40
2023-05-14T07:52:17.779Z,22.73
2023-05-14T07:54:48.377Z,23.29
2023-05-14T07:57:18.590Z,24.19
2023-05-14T07:59:46.776Z,24.50
2023-05-14T08:02:16.287Z,24.20
2023-05-14T08:04:47.000Z,24.88
2023-05-14T08:07:15.362Z,24.76
2023-05-14T08:09:43.663Z,24.94
2023-05-14T08:12:13.271Z,24.32
2023-05-14T08:14:41.546Z,25.01
2023-05-14T08:17:10.089Z,25.22
2023-05-14T08:19:38.609Z,25.20
2023-05-14T08:22:07.420Z,25.03
2023-05-14T08:24:37.876Z,24.54
2023-05-14T08:27:06.512Z,24.85
2023-05-14T08:29:38.407Z,24.59
2023-05-14T08:32:19.272Z,24.89
2023-05-14T08:34:50.924Z,25.09
2023-05-14T08:37:19.304Z,25.55
2023-05-14T08:39:52.374Z,25.37
2023-05-14T08:42:22.791Z,25.46
2023-05-14T08:46:24.602Z,25.83
2023-05-14T08:48:57.764Z,26.02
2023-05-14T08:51:29.271Z,26.61
2023-05-14T08:54:03.505Z,25.80
2023-05-14T08:56:34.450Z,24.93
2023-05-14T08:59:02.726Z,25.09
2023-05-14T09:01:32.563Z,25.19
2023-05-14T09:04:07.222Z,26.04
2023-05-14T09:06:37.627Z,25.96
2023-05-14T09:09:08.459Z,26.08
2023-05-14T09:11:42.242Z,26.25
2023-05-14T09:14:11.334Z,24.76
2023-05-14T09:16:42.626Z,23.56
2023-05-14T09:19:11.366Z,22.91
2023-05-14T09:21:40.207Z,24.38
2023-05-14T09:24:10.992Z,23.05
2023-05-14T09:26:39.438Z,22.87
2023-05-14T09:29:07.577Z,21.89
2023-05-14T09:31:37.431Z,23.63
2023-05-14T09:34:07.321Z,24.18
2023-05-14T09:36:36.170Z,23.47
2023-05-14T09:39:05.376Z,25.36
2023-05-14T09:41:36.305Z,26.11
2023-05-14T09:44:06.105Z,26.30
2023-05-14T09:46:35.290Z,26.34
2023-05-14T09:49:03.853Z,24.39
2023-05-14T09:51:33.751Z,23.43
2023-05-14T09:54:05.924Z,24.42
2023-05-14T09:56:34.272Z,22.57
2023-05-14T09:59:02.979Z,22.22
2023-05-14T10:01:33.092Z,21.64
2023-05-14T10:04:03.825Z,21.38
2023-05-14T10:06:37.588Z,20.77
2023-05-14T10:09:12.091Z,20.66
2023-05-14T10:11:44.330Z,20.17
2023-05-14T10:14:18.263Z,19.37
2023-05-14T10:16:50.263Z,19.60
2023-05-14T10:19:21.529Z,19.28
2023-05-14T10:21:56.946Z,19.26
2023-05-14T10:24:26.822Z,19.18
2023-05-14T10:26:58.738Z,19.35
2023-05-14T10:29:34.476Z,19.27
2023-05-14T10:32:06.483Z,19.60
2023-05-14T10:34:38.872Z,19.15
2023-05-14T10:37:10.680Z,18.97
2023-05-14T10:39:47.237Z,18.82
2023-05-14T10:42:18.976Z,18.67
2023-05-14T10:44:53.480Z,18.76
2023-05-14T10:47:22.612Z,18.46
2023-05-14T10:49:51.994Z,18.40
2023-05-14T10:52:25.073Z,18.53
2023-05-14T10:54:54.916Z,18.46
2023-05-14T10:57:26.331Z,18.63
2023-05-14T10:59:56.322Z,18.48
2023-05-14T11:02:28.355Z,18.41
2023-05-14T11:04:59.577Z,18.27
2023-05-14T11:07:34.027Z,18.18
2023-05-14T11:10:07.330Z,18.45
2023-05-14T11:12:36.693Z,19.09
2023-05-14T11:15:06.778Z,18.94
2023-05-14T11:17:36.997Z,19.13
2023-05-14T11:20:06.615Z,19.38
2023-05-14T11:22:37.301Z,19.20
2023-05-14T11:25:07.374Z,19.52
2023-05-14T11:27:39.714Z,19.24
2023-05-14T11:30:14.595Z,19.37
2023-05-14T11:32:43.479Z,19.89
2023-05-14T11:35:11.797Z,21.41
2023-05-14T11:37:41.602Z,21.40
2023-05-14T11:40:16.789Z,20.80
2023-05-14T11:42:45.654Z,20.67
2023-05-14T11:45:26.504Z,20.69
2023-05-14T11:47:55.227Z,20.34
2023-05-14T11:50:23.975Z,20.12
2023-05-14T11:52:57.738Z,19.80
2023-05-14T11:55:26.267Z,19.80
2023-05-14T11:57:54.951Z,20.11
2023-05-14T12:00:24.643Z,20.37
2023-05-14T12:02:53.564Z,20.83
2023-05-14T12:05:22.167Z,20.61
2023-05-14T12:07:50.510Z,21.21
2023-05-14T12:10:20.763Z,20.83
2023-05-14T12:12:50.413Z,21.10
2023-05-14T12:15:19.125Z,20.65
2023-05-14T12:17:51.971Z,20.82
2023-05-14T12:20:20.208Z,20.72
2023-05-14T12:22:48.507Z,20.89
2023-05-14T12:25:16.793Z,20.71
2023-05-14T12:27:46.960Z,20.37
2023-05-14T12:32:51.690Z,20.16
2023-05-14T12:35:23.456Z,20.66
2023-05-14T12:37:52.138Z,21.04
2023-05-14T12:40:20.774Z,21.15
2023-05-14T12:42:50.168Z,20.20
2023-05-14T12:45:18.785Z,19.60
2023-05-14T12:47:47.113Z,20.04
2023-05-14T12:50:15.334Z,19.60
2023-05-14T12:52:46.674Z,19.84
2023-05-14T12:55:17.303Z,20.00
2023-05-14T12:57:48.004Z,20.25
2023-05-14T13:00:18.144Z,20.06
2023-05-14T13:02:46.447Z,19.90
2023-05-14T13:05:16.997Z,20.03
2023-05-14T13:07:45.682Z,20.44
2023-05-14T13:10:14.003Z,20.19
2023-05-14T13:12:42.212Z,20.34
2023-05-14T13:15:11.592Z,19.90
2023-05-14T13:17:41.473Z,19.86
2023-05-14T13:20:10.771Z,20.29
2023-05-14T13:22:38.934Z,20.15
2023-05-14T13:25:08.281Z,20.04
2023-05-14T13:27:37.037Z,20.39
2023-05-14T13:30:05.658Z,20.06
2023-05-14T13:32:33.921Z,20.04
2023-05-14T13:35:07.931Z,19.83
2023-05-14T13:37:37.092Z,19.81
2023-05-14T13:40:08.702Z,19.75
2023-05-14T13:42:37.027Z,19.75
2023-05-14T13:47:21.102Z,19.71
2023-05-14T13:49:49.326Z,19.81
2023-05-14T13:52:19.821Z,19.50
2023-05-14T13:54:50.590Z,19.49
2023-05-14T13:57:18.690Z,19.38
2023-05-14T13:59:47.866Z,19.46
2023-05-14T14:02:18.424Z,19.35
2023-05-14T14:04:49.590Z,19.47
2023-05-14T14:07:21.223Z,19.41
2023-05-14T14:09:49.592Z,19.35
2023-05-14T14:12:20.165Z,19.31
2023-05-14T14:14:51.114Z,19.32
2023-05-14T14:17:21.523Z,19.54
2023-05-14T14:19:51.301Z,19.36
2023-05-14T14:22:22.198Z,18.99
2023-05-14T14:24:50.965Z,18.98
2023-05-14T14:27:19.180Z,18.93
2023-05-14T14:29:49.435Z,18.92
2023-05-14T14:32:21.484Z,19.04
2023-05-14T14:34:51.001Z,19.12
2023-05-14T14:37:21.154Z,19.09
2023-05-14T14:39:50.086Z,18.98
2023-05-14T14:42:20.775Z,18.90
2023-05-14T14:44:49.011Z,19.15
2023-05-14T14:47:17.859Z,19.00
2023-05-14T14:49:46.441Z,19.12
2023-05-14T14:52:16.058Z,19.14
2023-05-14T14:54:45.132Z,19.15
2023-05-14T14:57:13.227Z,19.23
2023-05-14T14:59:41.474Z,19.22
2023-05-14T15:02:12.696Z,19.36
2023-05-14T15:04:40.965Z,19.25
2023-05-14T15:07:09.441Z,19.00
2023-05-14T15:09:38.917Z,19.28
2023-05-14T15:12:09.414Z,19.49
2023-05-14T15:14:37.670Z,19.33
2023-05-14T15:17:06.276Z,19.40
2023-05-14T15:19:37.251Z,19.54
2023-05-14T15:22:05.940Z,19.45
2023-05-14T15:24:34.014Z,19.50
2023-05-14T15:27:03.411Z,19.61
2023-05-14T15:29:34.962Z,19.28
2023-05-14T15:32:03.412Z,19.15
2023-05-14T15:34:31.576Z,19.41
2023-05-14T15:36:59.942Z,19.56
2023-05-14T15:39:29.573Z,19.49
2023-05-14T15:41:58.278Z,19.51
2023-05-14T15:44:27.870Z,19.56
2023-05-14T15:46:55.911Z,19.55
2023-05-14T15:49:24.985Z,19.50
2023-05-14T15:51:55.982Z,19.58
2023-05-14T15:54:26.459Z,19.67
2023-05-14T15:56:54.915Z,19.69
2023-05-14T15:59:25.508Z,19.60
2023-05-14T16:01:56.229Z,19.52
2023-05-14T16:04:24.565Z,19.34
2023-05-14T16:06:53.216Z,19.44
2023-05-14T16:09:24.028Z,19.41
2023-05-14T16:11:52.227Z,19.29
2023-05-14T16:14:21.132Z,19.38
2023-05-14T16:16:49.458Z,19.40
2023-05-14T16:19:19.364Z,19.61
2023-05-14T16:21:48.083Z,19.48
2023-05-14T16:24:18.803Z,19.41
2023-05-14T16:26:47.661Z,19.42
2023-05-14T16:29:15.932Z,19.34
2023-05-14T16:31:44.681Z,19.28
2023-05-14T16:34:15.618Z,19.11
2023-05-14T16:36:45.346Z,19.03
2023-05-14T16:39:13.575Z,19.05
2023-05-14T16:41:42.093Z,19.04
2023-05-14T16:44:10.264Z,19.06
2023-05-14T16:46:39.143Z,19.05
2023-05-14T16:49:07.230Z,18.92
2023-05-14T16:51:36.609Z,19.05
2023-05-14T16:54:06.689Z,18.93
2023-05-14T16:56:35.171Z,18.97
2023-05-14T16:59:03.278Z,18.86
2023-05-14T17:01:34.709Z,18.85
2023-05-14T17:04:03.162Z,18.78
2023-05-14T17:06:33.976Z,18.72
2023-05-14T17:09:02.181Z,18.70
2023-05-14T17:11:31.973Z,18.66
2023-05-14T17:14:00.523Z,18.65
2023-05-14T17:16:29.556Z,18.56
2023-05-14T17:19:00.497Z,18.47
2023-05-14T17:21:29.231Z,18.43
2023-05-14T17:23:58.174Z,18.41
2023-05-14T17:26:26.630Z,18.37
2023-05-14T17:28:56.033Z,18.37
2023-05-14T17:31:24.293Z,18.35
2023-05-14T17:33:52.921Z,18.35
2023-05-14T17:36:21.171Z,18.28
2023-05-14T17:38:49.938Z,18.27
2023-05-14T17:45:26.089Z,18.18
2023-05-14T17:47:54.569Z,17.93
2023-05-14T17:50:22.678Z,18.10
2023-05-14T17:52:54.910Z,18.03
2023-05-14T17:55:24.867Z,18.05
2023-05-14T17:57:53.251Z,18.01
2023-05-14T18:00:25.104Z,17.96
2023-05-14T18:02:53.726Z,17.99
2023-05-14T18:05:22.013Z,17.96
2023-05-14T18:07:50.355Z,17.85
2023-05-14T18:10:18.772Z,17.75
2023-05-14T18:12:47.097Z,17.69
2023-05-14T18:15:15.713Z,17.52
2023-05-14T18:17:45.611Z,17.40
2023-05-14T18:20:13.779Z,17.20
2023-05-14T18:22:41.924Z,17.09
2023-05-14T18:25:12.967Z,16.99
2023-05-14T18:27:44.308Z,16.91
2023-05-14T18:30:14.714Z,16.82
2023-05-14T18:32:45.465Z,16.74
2023-05-14T18:35:14.780Z,16.69
2023-05-14T18:37:42.910Z,16.63
2023-05-14T18:40:16.363Z,16.57
2023-05-14T18:42:49.250Z,16.58
2023-05-14T18:48:26.602Z,16.42
2023-05-14T18:50:55.459Z,16.41
2023-05-14T18:53:26.302Z,16.38
2023-05-14T18:55:56.862Z,16.37
2023-05-14T18:58:25.171Z,16.36
2023-05-14T19:00:53.488Z,16.37
2023-05-14T19:03:25.535Z,16.36
2023-05-14T19:05:53.789Z,16.35
2023-05-14T19:08:22.184Z,16.30
2023-05-14T19:10:51.071Z,16.29
2023-05-14T19:13:19.308Z,16.29
2023-05-14T19:15:50.327Z,16.24
2023-05-14T19:18:18.591Z,16.22
2023-05-14T19:20:48.241Z,16.20
2023-05-14T19:23:21.109Z,16.13
2023-05-14T19:25:49.613Z,16.07
2023-05-14T19:28:19.922Z,15.99
2023-05-14T19:30:51.301Z,15.88
2023-05-14T19:33:19.553Z,15.78
2023-05-14T19:35:49.057Z,15.66
2023-05-14T19:38:17.460Z,15.55
2023-05-14T19:40:45.807Z,15.43
2023-05-14T19:43:16.206Z,15.35
2023-05-14T19:45:45.995Z,15.28
2023-05-14T19:48:15.992Z,15.19
2023-05-14T19:50:48.540Z,15.10
2023-05-14T19:53:16.865Z,15.00
2023-05-14T19:55:45.344Z,14.93
2023-05-14T19:58:14.230Z,14.80
2023-05-14T20:00:42.689Z,14.78
2023-05-14T20:03:16.579Z,14.68
2023-05-14T20:05:46.019Z,14.66
2023-05-14T20:08:16.902Z,14.54
2023-05-14T20:10:47.779Z,14.45
2023-05-14T20:13:16.199Z,14.38
2023-05-14T20:15:47.633Z,14.31
2023-05-14T20:18:15.865Z,14.20
2023-05-14T20:20:47.124Z,14.16
2023-05-14T20:23:16.907Z,14.11
2023-05-14T20:25:45.478Z,14.09
2023-05-14T20:28:13.702Z,13.97
2023-05-14T20:30:42.581Z,13.92
2023-05-14T20:33:13.041Z,13.87
2023-05-14T20:35:43.692Z,13.82
2023-05-14T20:38:12.977Z,13.80
2023-05-14T20:40:42.588Z,13.76
2023-05-14T20:43:10.676Z,13.76
2023-05-14T20:45:39.646Z,13.71
2023-05-14T20:48:10.286Z,13.72
2023-05-14T20:50:38.664Z,13.69
2023-05-14T20:53:07.037Z,13.76
2023-05-14T20:55:35.150Z,13.74
2023-05-14T20:58:04.623Z,13.75
2023-05-14T21:00:33.165Z,13.77
2023-05-14T21:03:01.619Z,13.77
2023-05-14T21:05:30.444Z,13.83
2023-05-14T21:07:58.787Z,13.87
2023-05-14T21:10:27.126Z,13.84
2023-05-14T21:12:58.497Z,13.80
2023-05-14T21:15:30.161Z,13.76
2023-05-14T21:17:58.553Z,13.73
2023-05-14T21:20:29.143Z,13.68
2023-05-14T21:22:59.920Z,13.66
2023-05-14T21:25:28.245Z,13.67
2023-05-14T21:27:56.448Z,13.65
2023-05-14T21:30:24.768Z,13.64
2023-05-14T21:32:54.328Z,13.59
2023-05-14T21:35:22.634Z,13.53
2023-05-14T21:37:53.007Z,13.45
2023-05-14T21:40:21.680Z,13.36
2023-05-14T21:42:50.006Z,13.23
2023-05-14T21:45:18.185Z,13.14
2023-05-14T21:47:48.972Z,13.03
2023-05-14T21:50:21.102Z,12.93
2023-05-14T21:52:51.721Z,12.90
2023-05-14T21:55:19.867Z,12.82
2023-05-14T21:57:48.163Z,12.79
2023-05-14T22:00:23.296Z,12.73
2023-05-14T22:02:52.220Z,12.73
2023-05-14T22:05:22.429Z,12.70
2023-05-14T22:07:51.634Z,12.62
2023-05-14T22:10:20.680Z,12.53
2023-05-14T22:12:49.180Z,12.55
2023-05-14T22:15:17.325Z,12.43
2023-05-14T22:17:46.971Z,12.37
2023-05-14T22:20:15.538Z,12.39
2023-05-14T22:22:45.012Z,12.33
2023-05-14T22:25:13.468Z,12.25
2023-05-14T22:27:41.582Z,12.21
2023-05-14T22:30:13.017Z,12.11
2023-05-14T22:32:41.362Z,12.02
2023-05-14T22:35:11.292Z,12.00
2023-05-14T22:37:39.497Z,11.92
2023-05-14T22:40:10.220Z,11.92
2023-05-14T22:42:38.451Z,11.85
2023-05-14T22:45:07.941Z,11.84
2023-05-14T22:47:39.272Z,11.80
2023-05-14T22:50:11.661Z,11.81
2023-05-14T22:52:40.337Z,11.80
2023-05-14T22:55:10.667Z,11.86
2023-05-14T22:57:39.857Z,11.89
2023-05-14T23:00:10.094Z,11.93
2023-05-14T23:02:39.386Z,11.99
2023-05-14T23:05:08.688Z,12.03
2023-05-14T23:07:37.114Z,12.04
2023-05-14T23:10:06.000Z,12.00
2023-05-14T23:12:40.149Z,11.95
2023-05-14T23:15:09.007Z,11.96
2023-05-14T23:17:37.427Z,11.96
2023-05-14T23:20:06.824Z,11.90
2023-05-14T23:22:35.202Z,11.91
2023-05-14T23:25:03.909Z,11.89
2023-05-14T23:27:32.178Z,11.87
2023-05-14T23:30:02.437Z,11.87
2023-05-14T23:32:30.987Z,11.82
2023-05-14T23:34:59.387Z,11.78
2023-05-14T23:37:30.725Z,11.77
2023-05-14T23:40:01.776Z,11.71
2023-05-14T23:42:30.759Z,11.69
2023-05-14T23:44:58.890Z,11.71
2023-05-14T23:49:27.935Z,11.72
2023-05-14T23:51:56.847Z,11.73
2023-05-14T23:54:27.222Z,11.75
2023-05-14T23:56:57.833Z,11.74
2023-05-14T23:59:26.755Z,11.72
